Latest Coastal Weather Observations for Maatsuyker Island

IDT60701

Issued at 6:42 am EST Monday 26 June 2017 (issued every 10 minutes, with the page automatically refreshed every 10 minutes)

About coastal observations | Map of coastal stations | Coastal observations for TAS | Marine services | Other Formats
Station Details ID: 094041 Name: MAATSUYKER ISLAND LIGHTHOUSE Lat: -43.66 Lon: 146.27 Height: 146.5 m
Data from the previous 72 hours. | See also: Recent months at Maatsuyker Island
Date/Time
EST
Temp
°C
Wind Pressure Rain since
9am
mm
Weather Cloud Vis
km
Sea
Height
m
Swell
Dir  Spd
kts
Gust
kts
hPa Trend Height
m
Period
s
Dir
26/06:30am 8.1 W 19 24 1016.0 - 3.0 - - - - - - -
26/06:00am 8.2 WNW 21 25 1015.6 R 3.0 Recent precip. Partly cloudy 20 1 3.0 14 SW
26/05:37am 8.2 WNW 20 31 1015.0 - 3.0 - - - - - - -
26/05:30am 8.0 WNW 19 25 1014.8 - 3.0 - - - - - - -
26/05:00am 7.6 W 14 22 1014.7 - 3.0 - - - - - - -
26/04:52am 7.3 W 13 16 1014.6 - 3.0 - - - - - - -
26/04:33am 7.6 WSW 21 24 1014.4 - 3.0 - - - - - - -
26/04:30am 7.9 W 17 24 1014.3 - 3.0 - - - - - - -
26/04:00am 7.2 WNW 14 20 1013.9 - 3.0 - - - - - - -
26/03:44am 7.6 WNW 20 30 1013.8 - 2.8 - - - - - - -
26/03:30am 7.9 W 17 22 1013.6 - 2.8 - - - - - - -
26/03:00am 7.3 W 15 18 1013.6 - 2.8 - - - - - - -
26/02:54am 7.4 SW 25 28 1013.4 - 2.8 - - - - - - -
26/02:53am 7.8 W 17 28 1013.4 - 2.8 - - - - - - -
26/02:30am 7.9 WNW 20 26 1012.9 - 2.8 - - - - - - -
26/02:00am 7.3 WNW 15 19 1012.8 - 2.8 - - - - - - -
26/01:30am 7.3 W 14 20 1012.3 - 2.8 - - - - - - -
26/01:00am 7.2 W 19 24 1012.1 - 2.6 - - - - - - -
26/12:30am 7.1 W 17 23 1011.9 - 2.6 - - - - - - -
26/12:00am 7.6 W 18 28 1011.9 - 2.6 - - - - - - -
 
Date/Time
EST
Temp
°C
Wind Pressure Rain since
9am
mm
Weather Cloud Vis
km
Sea
Height
m
Swell
Dir  Spd
kts
Gust
kts
hPa Trend Height
m
Period
s
Dir
25/11:56pm 7.6 W 17 28 1011.6 - 2.6 - - - - - - -
25/11:30pm 7.4 W 17 23 1011.3 - 2.6 - - - - - - -
25/11:00pm 6.7 W 17 25 1011.2 - 2.6 - - - - - - -
25/10:31pm 7.1 W 15 19 1010.7 - 2.4 - - - - - - -
25/10:30pm 7.1 WSW 20 27 1010.7 - 2.4 - - - - - - -
25/10:20pm 7.5 SW 25 29 1010.5 - 2.4 - - - - - - -
25/10:07pm 7.7 W 17 27 1010.3 - 2.4 - - - - - - -
25/10:00pm 7.8 W 20 27 1010.3 - 2.4 - - - - - - -
25/09:45pm 7.8 W 19 24 1010.1 - 2.4 - - - - - - -
25/09:30pm 7.5 WSW 23 29 1010.0 - 2.4 - - - - - - -
25/09:14pm 7.9 WSW 23 29 1009.8 - 2.4 - - - - - - -
25/09:13pm 8.1 W 17 27 1009.7 - 2.4 - - - - - - -
25/09:00pm 7.7 WSW 19 28 1009.6 - 2.4 - - - - - - -
25/08:58pm 7.7 WSW 18 28 1009.4 - 2.4 - - - - - - -
25/08:30pm 7.2 W 20 27 1009.0 - 2.4 - - - - - - -
25/08:21pm 7.2 W 19 29 1008.7 - 2.4 - - - - - - -
25/08:13pm 7.9 W 18 23 1008.5 - 2.4 - - - - - - -
25/08:00pm 7.7 WSW 21 28 1008.4 - 2.4 - - - - - - -
25/07:30pm 8.1 WSW 23 31 1007.8 - 2.4 - - - - - - -
25/07:23pm 8.0 W 20 31 1007.6 - 2.4 - - - - - - -
25/07:00pm 7.7 W 19 27 1007.1 - 2.4 - - - - - - -
25/06:30pm 7.8 W 25 35 1006.5 - 2.4 - - - - - - -
25/06:15pm 7.9 W 21 33 1005.9 - 2.4 - - - - - - -
25/06:13pm 7.8 W 19 23 1005.9 - 2.4 - - - - - - -
25/06:03pm 7.9 WSW 20 32 1005.7 - 2.4 - - - - - - -
25/06:00pm 7.9 WSW 19 27 1005.8 - 2.4 - - - - - - -
25/05:55pm 7.8 WSW 19 25 1005.5 - 2.4 - - - - - - -
25/05:48pm 7.7 W 22 26 1005.4 - 2.4 - - - - - - -
25/05:32pm 7.8 WSW 22 32 1005.0 - 2.4 - - - - - - -
25/05:30pm 7.8 WSW 23 32 1005.0 - 2.4 - - - - - - -
25/05:17pm 7.6 WSW 24 27 1004.7 - 2.4 - - - - - - -
25/05:00pm 8.4 W 22 32 1004.3 - 1.6 - - - - - - -
25/04:44pm 8.2 W 23 33 1004.1 - 1.6 - - - - - - -
25/04:32pm 8.8 WSW 20 26 1003.7 - 1.6 - - - - - - -
25/04:31pm 9.0 W 27 37 1003.7 - 1.6 - - - - - - -
25/04:30pm 9.0 W 28 37 1003.7 - 1.6 - - - - - - -
25/04:06pm 9.0 WNW 30 40 1002.9 - 1.6 - - - - - - -
25/04:00pm 8.7 WNW 30 38 1002.8 - 1.6 - - - - - - -
25/03:31pm 9.2 WNW 33 43 1002.1 - 1.6 - - - - - - -
25/03:30pm 9.3 WNW 32 39 1002.1 - 1.6 - - - - - - -
25/03:00pm 9.1 WNW 34 40 1001.8 - 1.6 - - - - - - -
25/02:30pm 8.9 WNW 37 45 1001.1 - 1.6 - - - - - - -
25/02:00pm 9.9 WNW 41 47 999.9 - 1.6 - - - - - - -
25/01:30pm 8.6 NW 44 55 998.2 - 1.6 - - - - - - -
25/01:27pm 8.9 NW 41 53 999.1 - 1.6 - - - - - - -
25/01:00pm 9.6 NW 42 50 998.9 - 1.4 - - - - - - -
25/12:30pm 9.7 NW 41 46 999.0 - 1.2 - - - - - - -
25/12:00pm 9.6 NW 44 50 999.4 - 1.2 - - - - - - -
25/11:30am 9.1 NW 44 53 998.8 - 1.0 - - - - - - -
25/11:00am 9.8 NNW 41 51 998.8 - 0.4 - - - - - - -
25/10:34am 9.8 NW 38 50 999.0 - 0.4 - - - - - - -
25/10:30am 10.1 NNW 36 41 999.2 - 0.4 - - - - - - -
25/10:08am 9.2 NW 44 54 999.0 - 0.4 - - - - - - -
25/10:00am 9.1 NW 45 54 999.1 - 0.4 - - - - - - -
25/09:38am 9.1 NNW 42 52 999.3 - 0.4 - - - - - - -
25/09:30am 9.0 NW 47 53 998.9 - 0.4 - - - - - - -
25/09:00am 9.8 NW 51 - 998.5 F 5.0 Showers Cloudy 8 5 4.5 14 SW
25/08:57am 9.8 NW 51 61 997.6 - 5.4 - - - - - - -
25/08:49am 9.5 NW 51 58 998.1 - 5.4 - - - - - - -
25/08:30am 9.5 NW 41 53 998.8 - 5.2 - - - - - - -
25/08:00am 9.6 NNW 37 47 999.8 - 4.2 - - - - - - -
25/07:57am 9.8 NNW 34 44 1000.1 - 4.2 - - - - - - -
25/07:51am 9.2 NNW 30 35 1000.3 - 4.2 - - - - - - -
25/07:42am 9.9 NW 40 53 999.3 - 4.2 - - - - - - -
25/07:30am 9.7 NW 35 43 1000.1 - 4.2 - - - - - - -
25/07:00am 10.0 NNW 35 43 1000.6 - 3.6 - - - - - - -
25/06:34am 9.3 NNW 34 49 1000.3 - 3.2 - - - - - - -
25/06:30am 9.5 NNW 34 42 1000.5 - 2.8 - - - - - - -
25/06:02am - - - - - - - - - - 3 6.0 14 SW
25/06:00am 9.9 NNW 34 - 1000.6 F - Recent precip. Cloudy 10 3 8.0 - -
25/05:58am 9.8 NNW 34 44 1000.4 - 2.8 - - - - - - -
25/05:30am 9.6 NNW 33 41 1001.2 - 2.8 - - - - - - -
25/05:14am 9.4 NNW 35 45 1000.8 - 2.8 - - - - - - -
25/05:00am 8.9 NW 42 48 1000.8 - 2.8 - - - - - - -
25/04:30am 9.1 NW 40 50 1000.8 - 1.6 - - - - - - -
25/04:17am 9.5 NNW 37 47 1001.6 - 1.4 - - - - - - -
25/04:00am 9.7 NW 39 47 1001.6 - 1.4 - - - - - - -
25/03:30am 9.9 NW 39 46 1002.1 - 1.4 - - - - - - -
25/03:00am 9.5 NNW 37 43 1002.5 - 1.4 - - - - - - -
25/02:30am 9.1 NW 39 45 1003.1 - 1.4 - - - - - - -
25/02:04am 9.5 NNW 32 45 1003.4 - 1.4 - - - - - - -
25/02:00am 9.5 NNW 32 40 1003.4 - 1.4 - - - - - - -
25/01:30am 8.5 NNW 33 46 1003.5 - 1.4 - - - - - - -
25/01:27am 9.3 NW 34 46 1003.3 - 1.4 - - - - - - -
25/01:00am 9.3 NW 33 38 1004.3 - 1.4 - - - - - - -
25/12:30am 8.7 NNW 33 41 1004.5 - 1.4 - - - - - - -
25/12:00am 8.2 NW 37 45 1004.8 - 1.4 - - - - - - -
 
Date/Time
EST
Temp
°C
Wind Pressure Rain since
9am
mm
Weather Cloud Vis
km
Sea
Height
m
Swell
Dir  Spd
kts
Gust
kts
hPa Trend Height
m
Period
s
Dir
24/11:52pm 8.0 NW 39 43 1005.0 - 1.2 - - - - - - -
24/11:47pm 8.0 NNW 25 35 1005.5 - 0.8 - - - - - - -
24/11:40pm 8.8 NW 31 35 1005.3 - 0.4 - - - - - - -
24/11:30pm 8.2 NNW 20 27 1005.5 - 0.4 - - - - - - -
24/11:00pm 8.4 NNW 22 28 1005.9 - 0.4 - - - - - - -
24/10:30pm 8.5 NNW 21 27 1006.2 - 0.4 - - - - - - -
24/10:00pm 8.9 NNW 25 35 1006.4 - 0.4 - - - - - - -
24/09:30pm 9.0 NNW 28 36 1006.6 - 0.4 - - - - - - -
24/09:00pm 9.1 NW 34 41 1006.6 - 0.4 - - - - - - -
24/08:30pm 8.7 NNW 36 43 1006.7 - 0.4 - - - - - - -
24/08:00pm 9.2 NW 33 41 1007.0 - 0.4 - - - - - - -
24/07:30pm 9.0 NW 36 43 1007.1 - 0.4 - - - - - - -
24/07:00pm 8.8 NW 36 41 1006.9 - 0.4 - - - - - - -
24/06:30pm 8.6 NW 35 40 1007.1 - 0.4 - - - - - - -
24/06:00pm 8.7 NW 35 41 1007.3 - 0.2 - - - - - - -
24/05:30pm 8.4 NW 34 40 1007.6 - 0.2 - - - - - - -
24/05:00pm 8.4 NW 35 42 1007.6 - 0.2 - - - - - - -
24/04:34pm 7.8 NW 38 48 1007.8 - 0.2 - - - - - - -
24/04:30pm 7.3 NW 42 50 1007.7 - 0.2 - - - - - - -
24/04:22pm 7.9 NW 39 50 1007.1 - 0.2 - - - - - - -
24/04:00pm 8.0 NW 35 43 1007.5 - 0.2 - - - - - - -
24/03:30pm 7.4 NW 37 45 1007.7 - 0.2 - - - - - - -
24/03:22pm 7.6 NW 37 47 1007.7 - 0.2 - - - - - - -
24/03:00pm 7.9 NW 39 47 1007.6 - 0.2 - - - - - - -
24/02:30pm 7.6 NW 36 45 1007.5 - 0.2 - - - - - - -
24/02:00pm 7.2 NW 38 46 1007.6 - 0.2 - - - - - - -
24/01:30pm 8.2 NW 35 40 1007.8 - 0.2 - - - - - - -
24/01:00pm 8.0 NW 36 42 1007.7 - 0.2 - - - - - - -
24/12:30pm 8.1 NW 32 39 1008.1 - 0.2 - - - - - - -
24/12:00pm 8.0 NW 34 39 1008.3 - 0.2 - - - - - - -
24/11:30am 7.9 WNW 34 38 1008.7 - 0.2 - - - - - - -
24/11:00am 7.5 WNW 30 35 1009.3 - 0.0 - - - - - - -
24/10:30am 6.8 WNW 30 37 1009.8 - 0.0 - - - - - - -
24/10:00am 7.3 WNW 31 37 1009.1 - 0.0 - - - - - - -
24/09:30am 6.3 WNW 32 42 1009.4 - 0.0 - - - - - - -
24/09:29am 6.5 WNW 31 42 1009.3 - 0.0 - - - - - - -
24/09:00am 6.7 NW 29 35 1009.2 S 5.8 Recent precip. Mostly cloudy 10 3 6.0 16 SW
24/08:48am 5.7 NW 33 43 1009.0 - 5.8 - - - - - - -
24/08:40am 6.0 WNW 37 43 1008.8 - 5.8 - - - - - - -
24/08:30am 6.1 WNW 27 37 1009.1 - 5.8 - - - - - - -
24/08:23am 6.3 WNW 27 37 1009.0 - 5.8 - - - - - - -
24/08:00am 6.1 WNW 29 36 1008.6 - 5.8 - - - - - - -
24/07:33am 5.6 W 26 36 1008.8 - 5.8 - - - - - - -
24/07:30am 5.4 W 27 36 1008.8 - 5.8 - - - - - - -
24/07:28am 5.4 W 28 36 1008.8 - 5.8 - - - - - - -
24/07:21am 5.5 NW 30 35 1008.1 - 5.8 - - - - - - -
24/07:16am 5.8 WNW 41 45 1007.7 - 5.8 - - - - - - -
24/07:00am 4.9 W 29 40 1008.7 - 5.8 - - - - - - -
24/06:49am 6.0 WNW 27 37 1008.3 - 5.6 - - - - - - -
24/06:30am 5.9 WNW 28 33 1008.1 - 5.6 - - - - - - -
24/06:05am 5.9 W 22 35 1008.0 - 5.6 - - - - - - -
24/06:00am 5.7 W 23 - 1008.1 R - Recent hail Partly cloudy 10 3 5.0 13 SW
24/05:59am 5.7 W 26 35 1008.0 - 5.6 - - - - - - -
24/05:41am 5.9 WNW 33 44 1006.5 - 5.6 - - - - - - -
24/05:30am 5.8 NW 33 39 1006.9 - 5.6 - - - - - - -
24/05:20am 4.5 WNW 29 34 1007.6 - 5.6 - - - - - - -
24/05:03am 5.1 NW 41 48 1006.1 - 5.4 - - - - - - -
24/05:02am 5.0 W 32 43 1006.6 - 5.4 - - - - - - -
24/05:00am 4.5 W 28 34 1007.6 - 5.2 - - - - - - -
24/04:39am 6.3 WNW 35 45 1006.2 - 5.0 - - - - - - -
24/04:33am 5.8 WNW 29 35 1006.9 - 5.0 - - - - - - -
24/04:30am 6.1 NW 40 47 1007.0 - 5.0 - - - - - - -
24/04:06am 6.3 WNW 35 45 1005.9 - 5.0 - - - - - - -
24/04:00am 6.3 WNW 33 39 1006.2 - 5.0 - - - - - - -
24/03:54am 6.0 NW 33 38 1006.2 - 5.0 - - - - - - -
24/03:40am 4.7 W 30 40 1007.0 - 5.0 - - - - - - -
24/03:35am 4.9 W 33 40 1007.1 - 5.0 - - - - - - -
24/03:30am 5.6 NW 34 39 1006.2 - 5.0 - - - - - - -
24/03:29am 5.7 NW 33 39 1006.2 - 5.0 - - - - - - -
24/03:11am 4.2 W 28 38 1007.2 - 4.8 - - - - - - -
24/03:07am 4.5 W 31 38 1007.2 - 4.8 - - - - - - -
24/03:04am 4.9 WNW 43 53 1005.9 - 4.8 - - - - - - -
24/03:01am 4.8 WNW 41 48 1006.1 - 4.6 - - - - - - -
24/03:00am 4.9 W 30 48 1006.6 - 4.6 - - - - - - -
24/02:53am 4.9 WNW 22 45 1006.6 - 4.4 - - - - - - -
24/02:46am 4.7 WNW 22 24 1006.5 - 4.4 - - - - - - -
24/02:34am 6.4 WNW 33 46 1005.6 - 3.8 - - - - - - -
24/02:30am 6.4 WNW 32 41 1006.2 - 3.8 - - - - - - -
24/02:21am 6.4 WNW 35 45 1006.5 - 3.8 - - - - - - -
24/02:00am 7.0 WNW 38 43 1005.7 - 3.8 - - - - - - -
24/01:30am 6.9 WNW 36 43 1005.6 - 3.8 - - - - - - -
24/01:00am 7.0 WNW 32 43 1005.9 - 3.8 - - - - - - -
24/12:55am 7.3 WNW 29 39 1005.7 - 3.8 - - - - - - -
24/12:30am 7.0 WNW 28 36 1006.3 - 3.8 - - - - - - -
24/12:00am 7.0 W 26 36 1006.3 - 3.8 - - - - - - -
 
Date/Time
EST
Temp
°C
Wind Pressure Rain since
9am
mm
Weather Cloud Vis
km
Sea
Height
m
Swell
Dir  Spd
kts
Gust
kts
hPa Trend Height
m
Period
s
Dir
23/11:30pm 7.1 W 28 39 1005.7 - 3.8 - - - - - - -
23/11:00pm 7.1 W 24 35 1005.8 - 3.6 - - - - - - -
23/10:58pm 7.0 W 25 35 1005.9 - 3.6 - - - - - - -
23/10:57pm 7.1 W 27 35 1005.8 - 3.6 - - - - - - -
23/10:39pm 6.7 WSW 27 37 1005.5 - 3.6 - - - - - - -
23/10:30pm 6.5 SW 28 36 1005.5 - 3.6 - - - - - - -
23/10:25pm 6.8 WSW 29 36 1005.4 - 3.6 - - - - - - -
23/10:22pm 6.5 W 28 35 1005.3 - 3.6 - - - - - - -
23/10:00pm 6.2 WSW 25 37 1005.0 - 3.6 - - - - - - -
23/09:58pm 6.3 WSW 25 37 1005.0 - 3.6 - - - - - - -
23/09:57pm 6.2 WSW 25 32 1005.0 - 3.4 - - - - - - -
23/09:54pm 6.1 W 20 33 1004.9 - 3.4 - - - - - - -
23/09:33pm 4.2 W 22 27 1004.9 - 3.4 - - - - - - -
23/09:30pm 3.5 WSW 28 45 1005.2 - 3.4 - - - - - - -
23/09:27pm 5.4 WSW 31 45 1005.1 - 3.2 - - - - - - -
23/09:24pm 6.0 WNW 21 31 1004.6 - 3.2 - - - - - - -
23/09:00pm 5.5 W 24 33 1004.8 - 3.2 - - - - - - -
23/08:51pm 5.3 W 25 35 1004.4 - 3.2 - - - - - - -
23/08:38pm 3.8 W 26 33 1004.8 - 3.2 - - - - - - -
23/08:30pm 5.4 WNW 37 50 1004.1 - 3.0 - - - - - - -
23/08:29pm 5.6 WNW 35 45 1003.1 - 3.0 - - - - - - -
23/08:14pm 6.2 WNW 36 40 1002.8 - 2.8 - - - - - - -
23/08:00pm 5.3 WNW 26 32 1003.6 - 2.6 - - - - - - -
23/07:39pm 5.1 W 31 42 1003.9 - 2.6 - - - - - - -
23/07:30pm 5.4 WSW 31 43 1003.8 - 2.6 - - - - - - -
23/07:19pm 6.1 WSW 34 44 1003.6 - 2.6 - - - - - - -
23/07:00pm 7.3 W 31 42 1002.5 - 2.6 - - - - - - -
23/06:31pm 7.3 WNW 31 42 1001.9 - 2.6 - - - - - - -
23/06:30pm 7.5 WNW 31 39 1002.0 - 2.6 - - - - - - -
23/06:24pm 7.5 WNW 33 38 1002.0 - 2.6 - - - - - - -
23/06:20pm 7.3 NW 35 39 1000.7 - 2.6 - - - - - - -
23/06:00pm 8.1 NW 45 55 1000.0 - 2.6 - - - - - - -
23/05:40pm 7.3 NW 49 59 999.9 - 2.6 - - - - - - -
23/05:36pm 7.1 NW 53 59 999.6 - 2.6 - - - - - - -
23/05:32pm 7.1 WNW 40 50 1001.1 - 2.6 - - - - - - -
23/05:30pm 7.3 WNW 41 50 1001.4 - 2.6 - - - - - - -
23/05:14pm 8.0 WNW 45 55 999.8 - 2.6 - - - - - - -
23/05:00pm 7.9 WNW 46 51 999.8 - 2.6 - - - - - - -
23/04:30pm 8.3 NW 47 56 999.0 - 2.6 - - - - - - -
23/04:00pm 7.9 NW 50 60 999.1 - 2.6 - - - - - - -
23/03:30pm 7.1 WNW 47 58 999.2 - 2.6 - - - - - - -
23/03:03pm 6.9 WNW 47 57 999.9 - 2.6 - - - - - - -
23/03:00pm 7.1 NW 48 57 999.6 - 2.6 - - - - - - -
23/02:48pm 6.6 NW 49 63 998.3 - 2.6 - - - - - - -
23/02:30pm 6.7 WNW 43 53 999.4 - 2.6 - - - - - - -
23/02:28pm 6.8 WNW 42 53 999.2 - 2.6 - - - - - - -
23/02:00pm 7.5 WNW 42 49 998.8 - 2.4 - - - - - - -
23/01:40pm 7.8 WNW 45 56 998.9 - 2.4 - - - - - - -
23/01:30pm 9.3 NW 50 60 996.8 - 2.2 - - - - - - -
23/01:24pm 9.3 NW 51 62 997.4 - 2.2 - - - - - - -
23/01:00pm 11.2 NW 58 68 995.3 - 2.0 - - - - - - -
23/12:30pm 11.0 NNW 54 64 995.6 - 2.0 - - - - - - -
23/12:01pm 10.7 NNW 54 64 996.6 - 2.0 - - - - - - -
23/12:00pm 10.7 NNW 55 64 996.3 - 2.0 - - - - - - -
23/11:30am 9.6 NNW 54 64 996.2 - 1.8 - - - - - - -
23/11:29am 9.5 NNW 53 63 996.3 - 1.8 - - - - - - -
23/11:24am 9.4 NNW 51 56 996.6 - 1.6 - - - - - - -
23/11:15am 9.5 NW 62 73 997.1 - 0.4 - - - - - - -
23/11:14am 11.4 NNW 52 73 996.9 - 0.4 - - - - - - -
23/11:00am 12.5 NNW 47 59 996.7 - 0.2 - - - - - - -
23/10:46am 12.5 NNW 53 64 996.8 - 0.2 - - - - - - -
23/10:30am 12.3 NNW 43 55 997.9 - 0.2 - - - - - - -
23/10:00am 12.2 NNW 39 56 998.9 - 0.2 - - - - - - -
23/09:30am 11.6 NNW 35 47 1000.7 - 0.2 - - - - - - -
23/09:07am 11.5 NNW 32 43 1001.0 - 0.0 - - - - - - -
23/09:00am 11.2 NNW 31 40 1001.6 F 1.0 Recent precip. Mostly cloudy 10 3 4.5 13 SW
23/08:30am 11.3 NNW 33 44 1002.0 - 1.0 - - - - - - -
23/08:00am 11.2 NNW 34 45 1002.5 - 1.0 - - - - - - -
23/07:30am 11.0 NNW 34 44 1003.1 - 0.8 - - - - - - -
23/07:00am 11.4 NNW 33 43 1003.5 - 0.6 - - - - - - -

Other Formats:

Comma delimited format used in spreadsheet applications
http://www.bom.gov.au/fwo/IDT60701/IDT60701.94962.axf

JavaScript Object Notation format (JSON) in row-major order
http://www.bom.gov.au/fwo/IDT60701/IDT60701.94962.json